Terminal Aerodrome Forecast
Issued by NWS

Home | Current Version | Previous Version | Graphics & Text | Print | Product List | Glossary On
Versions: 1 2 3 4 5 6 7 8 9 10 11 12 13 14 15 16 17 18 19
000
FTUS43 KGRB 171524 AAA
TAFATW
TAF AMD
KATW 171524Z 1715/1812 27011KT P6SM SCT009 OVC030
      TEMPO 1715/1717 BKN009
     FM171700 28009G16KT P6SM SCT020 BKN050
     FM171900 28010G17KT P6SM SCT200
     FM172200 30005KT P6SM SKC
     FM180800 35005KT P6SM SCT250
     FM181000 03005KT P6SM SCT030=

USA.gov is the U.S. government's official web portal to all federal, state and local government web resources and services.